Time;durP1;ratioP1;P1;durP2;ratioP2;P2;SDS_P1;SDS_P2;PMS_P1;PMS_P2;Temp;Humidity;BMP_temperature;BMP_pressure;BME280_temperature;BME280_humidity;BME280_pressure;Samples;Min_cycle;Max_cycle;Signal;HPM_P1;HPM_P2
2022/09/05 00:02:33;;;;;;;13.98;7.95;;;;;;;11.34;61.30;100347.36;1706046;84;21113;-81
2022/09/05 00:05:44;;;;;;;10.55;7.12;;;;;;;11.36;61.48;100348.18;1721000;83;21163;-81
2022/09/05 00:08:46;;;;;;;14.58;7.58;;;;;;;11.38;60.20;100347.72;1706173;84;21061;-81
2022/09/05 00:11:26;;;;;;;11.57;6.35;;;;;;;11.36;59.63;100347.33;1720994;83;21127;-81
2022/09/05 00:14:50;;;;;;;11.00;6.03;;;;;;;11.36;59.20;100348.18;1706687;84;21015;-80
2022/09/05 00:17:31;;;;;;;16.62;6.15;;;;;;;11.35;58.62;100341.20;1721153;83;21910;-81
2022/09/05 00:20:23;;;;;;;7.78;5.70;;;;;;;11.34;58.01;100337.67;1706185;84;21668;-81
2022/09/05 00:23:28;;;;;;;9.30;5.37;;;;;;;11.35;57.77;100338.56;1721179;83;21024;-81
2022/09/05 00:26:25;;;;;;;12.18;6.03;;;;;;;11.34;57.69;100332.41;1688443;84;21145;-81
2022/09/05 00:29:06;;;;;;;8.00;4.95;;;;;;;11.34;57.78;100328.45;1706518;84;21637;-81
2022/09/05 00:31:56;;;;;;;7.35;5.17;;;;;;;11.36;57.64;100328.42;1706409;84;21032;-81
2022/09/05 00:35:14;;;;;;;9.45;5.53;;;;;;;11.37;57.55;100328.84;1706807;84;21208;-81
2022/09/05 00:37:44;;;;;;;13.20;5.55;;;;;;;11.38;57.54;100334.54;1706450;84;21143;-81
2022/09/05 00:40:42;;;;;;;8.58;4.78;;;;;;;11.39;57.64;100321.77;1706456;84;21091;-81
2022/09/05 00:43:26;;;;;;;14.03;5.37;;;;;;;11.41;57.61;100328.31;1706512;84;21063;-81
2022/09/05 00:46:02;;;;;;;11.10;4.95;;;;;;;11.41;57.77;100319.95;1706520;84;21071;-81
2022/09/05 00:48:43;;;;;;;11.00;5.28;;;;;;;11.40;57.86;100319.55;1706322;84;21137;-81
2022/09/05 00:51:22;;;;;;;9.75;5.53;;;;;;;11.40;59.66;100316.92;1706676;84;21060;-81
2022/09/05 00:54:13;;;;;;;10.13;5.40;;;;;;;11.40;60.91;100318.23;1705736;84;21344;-81
2022/09/05 00:57:03;;;;;;;7.70;5.37;;;;;;;11.39;61.42;100309.91;1697095;84;21052;-80
2022/09/05 01:00:00;;;;;;;7.72;5.47;;;;;;;11.36;61.67;100304.70;1697817;84;21507;-80
2022/09/05 01:02:55;;;;;;;6.55;4.70;;;;;;;11.32;61.51;100307.02;1698039;84;21783;-81
2022/09/05 01:05:42;;;;;;;10.20;5.42;;;;;;;11.28;61.69;100306.23;1698358;84;21529;-80
2022/09/05 01:08:43;;;;;;;10.08;5.45;;;;;;;11.25;61.66;100298.87;1697646;83;21629;-80
2022/09/05 01:11:53;;;;;;;8.20;5.85;;;;;;;11.22;61.35;100294.98;1698175;84;21060;-81
2022/09/05 01:14:43;;;;;;;12.13;5.87;;;;;;;11.19;61.39;100299.00;1698410;84;21507;-81
2022/09/05 01:17:50;;;;;;;11.50;5.55;;;;;;;11.14;61.70;100297.33;1697825;84;22056;-81
2022/09/05 01:20:27;;;;;;;9.83;5.03;;;;;;;11.13;61.60;100296.08;1698095;84;21009;-80
2022/09/05 01:23:20;;;;;;;7.92;5.47;;;;;;;11.11;62.23;100296.12;1697863;84;21080;-81
2022/09/05 01:26:07;;;;;;;9.80;5.72;;;;;;;11.04;62.47;100293.66;1698134;84;21119;-80
2022/09/05 01:29:01;;;;;;;7.08;4.85;;;;;;;10.97;62.46;100295.11;1697863;84;21075;-81
2022/09/05 01:31:54;;;;;;;11.60;5.17;;;;;;;10.92;62.04;100292.18;1697873;84;21147;-82
2022/09/05 01:34:48;;;;;;;13.20;4.97;;;;;;;10.88;61.69;100291.39;1696869;84;21143;-81
2022/09/05 01:37:36;;;;;;;8.17;5.30;;;;;;;10.86;61.56;100294.52;1698400;84;21390;-82
2022/09/05 01:41:01;;;;;;;7.60;5.12;;;;;;;10.83;61.56;100290.63;1697782;84;21646;-81
2022/09/05 01:43:58;;;;;;;8.48;5.08;;;;;;;10.80;60.88;100292.02;1697832;84;22223;-81
2022/09/05 01:47:10;;;;;;;8.15;4.75;;;;;;;10.80;61.11;100283.27;1697800;84;21559;-80
2022/09/05 01:50:09;;;;;;;8.53;5.00;;;;;;;10.77;60.90;100286.36;1697049;84;21606;-81
2022/09/05 01:53:02;;;;;;;7.47;4.47;;;;;;;10.76;59.91;100285.96;1697754;84;21106;-81
2022/09/05 01:56:08;;;;;;;7.70;5.05;;;;;;;10.77;61.32;100286.36;1689323;84;22088;-82
2022/09/05 01:59:04;;;;;;;9.28;5.15;;;;;;;10.77;62.13;100285.04;1684675;85;21016;-81
2022/09/05 02:01:46;;;;;;;6.72;4.85;;;;;;;10.77;62.93;100291.63;1684126;85;21126;-81
2022/09/05 02:04:43;;;;;;;9.33;5.60;;;;;;;10.74;63.39;100293.46;1676780;85;22222;-81
2022/09/05 02:07:38;;;;;;;10.68;5.17;;;;;;;10.70;63.68;100291.36;1676852;85;21119;-80
2022/09/05 02:10:29;;;;;;;5.85;4.92;;;;;;;10.68;63.86;100290.99;1676854;85;21512;-81
2022/09/05 02:13:16;;;;;;;8.50;5.40;;;;;;;10.66;63.62;100291.02;1683706;84;21072;-81
2022/09/05 02:15:48;;;;;;;10.13;5.40;;;;;;;10.67;63.57;100292.73;1681570;84;21870;-81
2022/09/05 02:18:21;;;;;;;6.50;5.03;;;;;;;10.66;63.39;100285.76;1676836;84;21074;-81
2022/09/05 02:20:57;;;;;;;8.90;5.12;;;;;;;10.67;63.28;100285.30;1670461;84;21031;-81
2022/09/05 02:23:44;;;;;;;8.23;5.50;;;;;;;10.68;63.19;100281.32;1684255;85;21139;-82
2022/09/05 02:26:19;;;;;;;9.70;4.97;;;;;;;10.68;62.01;100282.64;1676848;84;20999;-81
2022/09/05 02:29:12;;;;;;;9.68;5.10;;;;;;;10.70;60.90;100282.14;1676970;85;21080;-81
2022/09/05 02:31:48;;;;;;;8.55;4.90;;;;;;;10.72;61.55;100279.02;1677051;85;21028;-81
2022/09/05 02:34:33;;;;;;;11.38;5.35;;;;;;;10.74;61.13;100277.67;1676788;85;21148;-82
2022/09/05 02:37:20;;;;;;;13.62;5.33;;;;;;;10.76;61.02;100270.17;1673565;85;21030;-81
2022/09/05 02:39:58;;;;;;;11.63;5.95;;;;;;;10.80;60.84;100268.78;1676807;85;21084;-82
2022/09/05 02:42:45;;;;;;;34.50;15.88;;;;;;;10.80;60.51;100267.01;1676937;84;21112;-81
2022/09/05 02:45:44;;;;;;;28.70;13.98;;;;;;;10.80;59.77;100267.47;1676721;85;21067;-81
2022/09/05 02:48:39;;;;;;;20.80;10.88;;;;;;;10.80;59.74;100276.68;1677056;85;21558;-80
2022/09/05 02:51:23;;;;;;;20.80;10.60;;;;;;;10.80;60.41;100268.33;1676985;85;21091;-80
2022/09/05 02:53:57;;;;;;;23.87;10.65;;;;;;;10.82;61.26;100271.78;1677062;84;21028;-81
2022/09/05 02:56:57;;;;;;;19.67;9.13;;;;;;;10.83;61.29;100275.30;1683161;84;21221;-82
2022/09/05 02:59:49;;;;;;;16.25;9.38;;;;;;;10.84;62.09;100266.48;1675052;85;21525;-81
2022/09/05 03:02:50;;;;;;;18.15;9.20;;;;;;;10.83;62.42;100274.84;1684573;85;21095;-81
2022/09/05 03:05:22;;;;;;;17.98;9.88;;;;;;;10.84;62.88;100273.92;1684453;84;21103;-81
2022/09/05 03:08:25;;;;;;;21.48;10.68;;;;;;;10.82;63.53;100273.55;1685204;84;21072;-81
2022/09/05 03:11:24;;;;;;;21.07;11.33;;;;;;;10.78;63.42;100274.94;1684216;85;21903;-80
2022/09/05 03:14:18;;;;;;;17.05;9.00;;;;;;;10.80;63.94;100268.78;1699371;84;21892;-79
2022/09/05 03:17:20;;;;;;;17.70;9.53;;;;;;;10.80;64.23;100276.68;1684216;85;21091;-81
2022/09/05 03:20:43;;;;;;;21.82;10.40;;;;;;;10.79;64.66;100274.48;1655381;86;21133;-80
2022/09/05 03:23:27;;;;;;;21.42;9.83;;;;;;;10.80;65.11;100278.00;1676349;85;21091;-80
2022/09/05 03:26:39;;;;;;;20.60;10.08;;;;;;;10.78;65.19;100272.30;1683733;85;21197;-80
2022/09/05 03:29:50;;;;;;;16.37;9.03;;;;;;;10.77;65.19;100278.45;1699317;83;21032;-80
2022/09/05 03:32:47;;;;;;;19.25;8.43;;;;;;;10.78;64.94;100274.08;1683862;84;21087;-81
2022/09/05 03:35:58;;;;;;;14.23;8.25;;;;;;;10.81;63.77;100282.34;1655627;86;21592;-79
2022/09/05 03:38:50;;;;;;;16.40;7.90;;;;;;;10.81;64.36;100275.77;1676316;85;21673;-80
2022/09/05 03:41:39;;;;;;;14.98;8.75;;;;;;;10.83;65.18;100276.62;1684274;85;21634;-80
2022/09/05 03:44:28;;;;;;;17.05;8.75;;;;;;;10.84;65.80;100280.95;1656081;85;21220;-80
2022/09/05 03:47:09;;;;;;;16.12;8.48;;;;;;;10.84;66.07;100275.70;1676451;85;21047;-80
2022/09/05 03:50:07;;;;;;;19.02;8.43;;;;;;;10.85;66.25;100277.44;1684322;85;21095;-80
2022/09/05 03:53:15;;;;;;;19.05;8.68;;;;;;;10.85;66.27;100280.07;1674828;85;22084;-80
2022/09/05 03:56:08;;;;;;;21.23;8.38;;;;;;;10.86;66.56;100277.83;1677348;84;21235;-80
2022/09/05 03:58:50;;;;;;;23.65;7.12;;;;;;;10.87;66.71;100276.94;1673931;85;21111;-81
2022/09/05 04:01:24;;;;;;;18.42;7.42;;;;;;;10.89;66.33;100276.45;1674023;85;21597;-80
2022/09/05 04:04:08;;;;;;;16.93;8.10;;;;;;;10.92;66.06;100278.55;1674694;85;21099;-80
2022/09/05 04:06:48;;;;;;;17.00;7.97;;;;;;;10.95;66.50;100278.95;1674249;85;21771;-80
2022/09/05 04:09:34;;;;;;;16.17;7.00;;;;;;;10.96;66.75;100278.03;1674242;85;22417;-79
2022/09/05 04:12:15;;;;;;;25.27;8.10;;;;;;;11.00;66.51;100274.89;1673769;84;21001;-80
2022/09/05 04:14:56;;;;;;;14.58;6.53;;;;;;;11.02;66.80;100272.62;1691448;84;21087;-80
2022/09/05 04:17:35;;;;;;;12.73;6.58;;;;;;;11.04;66.80;100272.13;1714003;83;21605;-80
2022/09/05 04:20:18;;;;;;;11.68;6.72;;;;;;;11.07;67.08;100276.47;1715542;83;22135;-80
2022/09/05 04:23:12;;;;;;;13.70;6.53;;;;;;;11.08;66.49;100277.75;1698044;84;21237;-80
2022/09/05 04:26:09;;;;;;;19.45;6.55;;;;;;;11.12;66.21;100275.91;1714981;83;21057;-80
2022/09/05 04:29:17;;;;;;;13.88;6.42;;;;;;;11.14;66.19;100277.58;1715239;83;21056;-81
2022/09/05 04:32:06;;;;;;;14.98;7.33;;;;;;;11.15;65.30;100284.59;1697946;84;21101;-81
2022/09/05 04:35:11;;;;;;;18.90;6.78;;;;;;;11.17;64.36;100279.75;1715353;83;21036;-80
2022/09/05 04:37:54;;;;;;;24.60;9.13;;;;;;;11.18;65.06;100283.66;1697915;84;21553;-79
2022/09/05 04:41:05;;;;;;;11.73;6.83;;;;;;;11.22;64.65;100273.91;1715010;83;21088;-80
2022/09/05 04:43:52;;;;;;;19.73;7.28;;;;;;;11.25;64.78;100276.47;1697928;83;21113;-80
2022/09/05 04:46:45;;;;;;;20.52;7.80;;;;;;;11.29;65.05;100274.16;1715248;83;21072;-80
2022/09/05 04:49:18;;;;;;;22.32;7.10;;;;;;;11.33;64.76;100273.16;1698235;84;21030;-79
2022/09/05 04:52:22;;;;;;;23.60;7.12;;;;;;;11.37;64.68;100273.52;1715252;83;21216;-79
2022/09/05 04:54:54;;;;;;;25.90;6.97;;;;;;;11.40;64.45;100273.44;1715335;83;21056;-80
2022/09/05 04:57:45;;;;;;;23.85;6.97;;;;;;;11.46;65.16;100276.36;1685906;84;21142;-80
2022/09/05 05:00:24;;;;;;;21.20;8.58;;;;;;;11.48;64.43;100279.38;1668603;86;21076;-80
2022/09/05 05:02:57;;;;;;;18.02;8.40;;;;;;;11.51;64.93;100271.37;1668253;86;21726;-80
2022/09/05 05:05:36;;;;;;;15.30;7.20;;;;;;;11.57;64.19;100272.14;1668590;86;21154;-80
2022/09/05 05:08:15;;;;;;;27.87;8.43;;;;;;;11.61;63.08;100268.50;1668259;86;21069;-80
2022/09/05 05:10:46;;;;;;;26.90;7.65;;;;;;;11.66;62.39;100271.41;1668506;86;21168;-81
2022/09/05 05:13:29;;;;;;;21.35;7.35;;;;;;;11.73;62.60;100276.07;1668330;86;21125;-80
2022/09/05 05:16:01;;;;;;;21.70;7.15;;;;;;;11.80;62.45;100282.93;1668465;86;21017;-81
2022/09/05 05:18:32;;;;;;;17.95;7.25;;;;;;;11.86;62.21;100274.83;1668264;86;21245;-81
2022/09/05 05:21:19;;;;;;;18.30;7.87;;;;;;;11.92;62.18;100267.69;1668508;86;21148;-81
2022/09/05 05:24:08;;;;;;;23.67;8.28;;;;;;;11.99;62.06;100275.86;1668254;86;21041;-80
2022/09/05 05:27:09;;;;;;;25.70;8.48;;;;;;;12.05;61.64;100276.98;1668585;86;21096;-80
2022/09/05 05:29:48;;;;;;;21.25;7.95;;;;;;;12.12;61.31;100269.33;1668126;86;21030;-80
2022/09/05 05:32:25;;;;;;;18.07;8.30;;;;;;;12.19;61.14;100265.59;1668632;86;21104;-81
2022/09/05 05:34:54;;;;;;;16.80;8.20;;;;;;;12.28;61.55;100270.19;1667859;86;21406;-81
2022/09/05 05:37:44;;;;;;;18.90;8.05;;;;;;;12.33;60.32;100269.13;1668382;86;21156;-80
2022/09/05 05:40:19;;;;;;;19.25;8.55;;;;;;;12.37;59.96;100269.90;1668253;86;21101;-81
2022/09/05 05:42:45;;;;;;;15.03;8.48;;;;;;;12.40;59.47;100271.98;1668579;86;21054;-80
2022/09/05 05:45:20;;;;;;;19.05;8.73;;;;;;;12.44;59.15;100272.79;1668318;86;21115;-82
2022/09/05 05:47:57;;;;;;;17.92;8.95;;;;;;;12.44;59.02;100274.96;1668562;86;21112;-80
2022/09/05 05:50:41;;;;;;;23.02;9.30;;;;;;;12.47;59.13;100272.67;1667812;86;21125;-81
2022/09/05 05:53:39;;;;;;;14.67;9.37;;;;;;;12.50;59.33;100275.22;1668664;85;21093;-81
2022/09/05 05:56:26;;;;;;;17.25;8.60;;;;;;;12.54;58.96;100275.55;1664774;85;21056;-80
2022/09/05 05:59:39;;;;;;;18.25;8.78;;;;;;;12.57;58.78;100287.78;1669871;85;21176;-81
2022/09/05 06:03:01;;;;;;;15.48;8.58;;;;;;;12.62;58.94;100286.75;1669854;85;21079;-80
2022/09/05 06:05:44;;;;;;;25.27;9.45;;;;;;;12.67;58.85;100287.05;1670065;85;21025;-80
2022/09/05 06:08:34;;;;;;;22.10;9.93;;;;;;;12.70;58.98;100281.21;1669919;85;21159;-80
2022/09/05 06:11:27;;;;;;;38.25;11.08;;;;;;;12.73;59.01;100288.19;1670029;85;21068;-81
2022/09/05 06:14:32;;;;;;;39.60;11.15;;;;;;;12.79;58.89;100286.22;1658038;85;21235;-80
2022/09/05 06:17:24;;;;;;;30.50;10.48;;;;;;;12.89;58.63;100281.95;1669499;85;21152;-81
2022/09/05 06:20:24;;;;;;;18.77;8.73;;;;;;;13.01;58.42;100285.08;1652403;85;21693;-80
2022/09/05 06:23:18;;;;;;;25.68;9.63;;;;;;;13.19;57.73;100282.27;1670159;85;21112;-81
2022/09/05 06:26:11;;;;;;;34.70;11.15;;;;;;;13.39;57.48;100286.06;1669779;85;21587;-81
2022/09/05 06:28:49;;;;;;;35.50;11.65;;;;;;;13.60;57.15;100291.52;1670016;84;21103;-81
2022/09/05 06:31:29;;;;;;;39.58;11.18;;;;;;;13.81;57.42;100290.77;1669646;85;21199;-81
2022/09/05 06:34:02;;;;;;;35.83;10.80;;;;;;;14.04;55.63;100285.98;1669892;85;21479;-81
2022/09/05 06:36:37;;;;;;;35.68;10.48;;;;;;;14.24;55.27;100294.95;1669017;85;21026;-80
2022/09/05 06:39:25;;;;;;;;;;;;;;;14.46;55.04;100304.30;1672230;85;21092;-81
2022/09/05 06:42:23;;;;;;;25.35;9.40;;;;;;;14.68;54.72;100306.55;1669813;85;21101;-81
2022/09/05 06:45:04;;;;;;;26.57;9.40;;;;;;;14.95;54.53;100312.15;1669806;85;21056;-81
2022/09/05 06:47:31;;;;;;;16.52;8.45;;;;;;;15.20;54.58;100310.22;1669813;85;21143;-82
2022/09/05 06:50:19;;;;;;;19.87;9.43;;;;;;;15.38;53.79;100311.26;1669890;85;21151;-81
2022/09/05 06:53:34;;;;;;;25.05;9.88;;;;;;;15.41;52.83;100311.58;1669645;85;21040;-80
2022/09/05 06:56:41;;;;;;;265.55;147.98;;;;;;;15.32;52.70;100317.28;1670556;85;21120;-80
2022/09/05 06:59:40;;;;;;;381.68;224.47;;;;;;;15.23;52.69;100328.66;1675415;85;48303;-81
2022/09/05 07:02:20;;;;;;;362.52;210.08;;;;;;;15.09;52.88;100329.67;1675644;85;21566;-81
2022/09/05 07:05:11;;;;;;;398.98;229.72;;;;;;;14.98;53.03;100328.78;1715162;83;21104;-81
2022/09/05 07:07:45;;;;;;;445.25;258.52;;;;;;;14.90;53.20;100320.75;1697866;84;21090;-81
2022/09/05 07:10:28;;;;;;;446.48;271.10;;;;;;;14.84;53.34;100329.78;1715389;83;21113;-81
2022/09/05 07:13:35;;;;;;;396.63;239.97;;;;;;;14.81;53.12;100321.95;1715391;83;20929;-80
2022/09/05 07:16:33;;;;;;;349.27;210.68;;;;;;;14.84;53.19;100329.34;1715103;83;21147;-81
2022/09/05 07:19:25;;;;;;;334.95;197.75;;;;;;;14.90;52.91;100335.32;1715321;83;21155;-80
2022/09/05 07:22:16;;;;;;;331.70;192.53;;;;;;;14.91;52.62;100334.38;1715350;83;21111;-81
2022/09/05 07:24:45;;;;;;;307.48;179.12;;;;;;;14.94;53.17;100333.78;1715095;83;22584;-81
2022/09/05 07:27:36;;;;;;;313.57;179.65;;;;;;;14.95;52.46;100334.67;1714979;83;20993;-80
2022/09/05 07:30:04;;;;;;;328.48;175.57;;;;;;;15.00;52.55;100365.83;1683680;83;21009;-79
2022/09/05 07:32:35;;;;;;;224.07;121.00;;;;;;;14.97;52.41;100376.07;1697968;84;21071;-82
2022/09/05 07:35:02;;;;;;;188.07;103.12;;;;;;;14.92;52.91;100397.91;1697401;84;21072;-81
2022/09/05 07:37:39;;;;;;;196.63;110.37;;;;;;;14.91;54.14;100390.02;1697839;84;21217;-81
2022/09/05 07:40:19;;;;;;;157.70;79.00;;;;;;;14.89;54.66;100405.12;1697885;84;21170;-82
2022/09/05 07:42:56;;;;;;;121.28;60.67;;;;;;;14.80;54.88;100407.20;1698342;84;21130;-81
2022/09/05 07:45:26;;;;;;;105.30;56.80;;;;;;;14.63;56.31;100399.03;1697910;84;21032;-80
2022/09/05 07:48:14;;;;;;;113.85;57.15;;;;;;;14.40;57.41;100396.72;1698293;84;21146;-81
2022/09/05 07:50:51;;;;;;;106.03;56.28;;;;;;;14.24;58.53;100403.47;1697146;83;21564;-80
2022/09/05 07:53:18;;;;;;;97.82;52.70;;;;;;;14.05;61.01;100398.83;1698307;83;21068;-81
2022/09/05 07:55:49;;;;;;;92.42;49.67;;;;;;;13.88;63.12;100404.70;1697793;84;21138;-81
2022/09/05 07:58:16;;;;;;;87.02;44.27;;;;;;;13.80;64.23;100390.02;1685999;84;21090;-80
2022/09/05 08:00:42;;;;;;;85.40;45.80;;;;;;;13.74;64.79;100372.12;1674901;85;21095;-82
2022/09/05 08:03:13;;;;;;;86.10;45.67;;;;;;;13.76;65.76;100364.13;1684713;85;21930;-81
2022/09/05 08:05:48;;;;;;;85.45;43.60;;;;;;;13.80;66.37;100366.20;1684957;85;21671;-81
2022/09/05 08:08:19;;;;;;;80.70;40.38;;;;;;;13.85;66.88;100368.23;1684880;85;21067;-81
2022/09/05 08:10:54;;;;;;;72.50;38.90;;;;;;;13.87;67.28;100365.95;1684520;84;21059;-82
2022/09/05 08:13:42;;;;;;;71.05;36.00;;;;;;;13.88;67.42;100362.84;1684319;84;21048;-80
2022/09/05 08:16:10;;;;;;;66.22;35.10;;;;;;;13.91;67.45;100362.75;1684246;85;21222;-82
2022/09/05 08:18:50;;;;;;;58.10;31.80;;;;;;;13.94;67.40;100354.70;1684033;84;21080;-83
2022/09/05 08:21:33;;;;;;;68.85;32.98;;;;;;;13.94;68.20;100362.64;1658536;84;21087;-81
2022/09/05 08:24:11;;;;;;;84.13;42.48;;;;;;;13.91;68.27;100349.52;1671979;84;20963;-83
2022/09/05 08:26:55;;;;;;;72.37;38.90;;;;;;;13.84;68.96;100350.66;1684372;84;21031;-82
2022/09/05 08:29:35;;;;;;;70.47;39.40;;;;;;;13.78;69.89;100350.86;1684160;84;22342;-82
2022/09/05 08:32:15;;;;;;;71.80;37.13;;;;;;;13.70;70.34;100348.46;1669469;85;21084;-82
2022/09/05 08:35:06;;;;;;;62.80;33.53;;;;;;;13.66;70.52;100341.09;1684302;85;21169;-82
2022/09/05 08:37:33;;;;;;;63.35;32.05;;;;;;;13.70;69.24;100333.48;1683970;84;21123;-81
2022/09/05 08:40:04;;;;;;;51.13;30.32;;;;;;;13.78;68.08;100341.60;1684358;85;21063;-82
2022/09/05 08:42:51;;;;;;;62.70;34.55;;;;;;;13.93;67.96;100341.06;1684452;84;21797;-82
2022/09/05 08:45:25;;;;;;;68.35;34.43;;;;;;;14.05;69.13;100343.26;1684103;84;21457;-83
2022/09/05 08:48:09;;;;;;;51.02;29.10;;;;;;;14.24;69.18;100338.63;1684233;84;21063;-81
2022/09/05 08:50:48;;;;;;;58.23;30.50;;;;;;;14.42;67.67;100331.80;1684363;84;21110;-82
2022/09/05 08:53:45;;;;;;;58.40;31.85;;;;;;;14.66;66.99;100339.33;1683701;84;21143;-82
2022/09/05 08:56:40;;;;;;;57.55;29.67;;;;;;;14.86;66.65;100334.11;1684302;84;21262;-81
2022/09/05 08:59:17;;;;;;;50.40;26.15;;;;;;;15.08;66.21;100335.91;1684351;85;21017;-81
2022/09/05 09:01:55;;;;;;;41.77;23.22;;;;;;;15.31;65.36;100331.45;1678004;83;21170;-82
2022/09/05 09:05:07;;;;;;;33.45;19.52;;;;;;;15.55;64.55;100325.58;1684621;85;21025;-82
2022/09/05 09:07:39;;;;;;;33.30;19.27;;;;;;;15.78;63.03;100320.66;1684162;85;21873;-82
2022/09/05 09:10:58;;;;;;;38.95;17.27;;;;;;;16.04;60.71;100322.62;1684547;85;21270;-81
2022/09/05 09:13:51;;;;;;;25.02;13.93;;;;;;;16.21;59.89;100314.78;1653308;84;21099;-81
2022/09/05 09:16:32;;;;;;;30.72;17.77;;;;;;;16.51;59.33;100303.69;1679938;83;21013;-81
2022/09/05 09:19:04;;;;;;;40.73;21.90;;;;;;;16.80;58.08;100313.41;1684272;85;21143;-83
2022/09/05 09:21:48;;;;;;;39.85;18.02;;;;;;;17.00;56.91;100314.66;1684493;84;21096;-82
2022/09/05 09:24:49;;;;;;;20.27;10.95;;;;;;;17.13;55.58;100309.62;1664910;84;21802;-82
2022/09/05 09:27:40;;;;;;;18.62;8.43;;;;;;;17.35;54.41;100310.74;1684678;84;21597;-82
2022/09/05 09:30:07;;;;;;;15.43;9.95;;;;;;;17.57;52.00;100305.67;1684172;84;21538;-80
2022/09/05 09:32:45;;;;;;;16.20;8.03;;;;;;;17.83;51.66;100309.62;1684429;84;21055;-80
2022/09/05 09:35:34;;;;;;;13.10;7.25;;;;;;;18.03;50.92;100306.44;1684265;85;21685;-82
2022/09/05 09:38:48;;;;;;;13.40;6.90;;;;;;;18.19;49.26;100304.69;1684343;84;21148;-81
2022/09/05 09:41:44;;;;;;;11.75;7.10;;;;;;;18.26;48.56;100299.41;1684093;84;21040;-82
2022/09/05 09:44:54;;;;;;;13.90;7.45;;;;;;;18.42;48.45;100290.09;1684531;84;21091;-82
2022/09/05 09:47:49;;;;;;;13.05;6.60;;;;;;;18.50;47.21;100291.87;1684259;84;21017;-81
2022/09/05 09:50:42;;;;;;;11.68;6.03;;;;;;;18.54;47.49;100288.11;1684517;84;21076;-81
2022/09/05 09:53:36;;;;;;;11.12;6.58;;;;;;;18.67;47.30;100280.75;1684214;84;21153;-81
2022/09/05 09:56:59;;;;;;;10.38;6.78;;;;;;;18.74;45.81;100284.78;1667303;85;21080;-81
2022/09/05 10:00:06;;;;;;;13.83;7.85;;;;;;;18.77;45.88;100280.61;1684424;84;21523;-80
2022/09/05 10:02:46;;;;;;;12.68;6.22;;;;;;;18.82;46.20;100277.69;1683837;84;21087;-79
2022/09/05 10:05:39;;;;;;;10.88;6.55;;;;;;;18.86;45.77;100282.80;1684478;84;21137;-81
2022/09/05 10:08:14;;;;;;;9.25;6.55;;;;;;;18.93;45.86;100268.65;1684471;84;21618;-81
2022/09/05 10:10:59;;;;;;;8.83;6.50;;;;;;;19.07;45.83;100261.18;1684127;85;21080;-81
2022/09/05 10:13:55;;;;;;;13.22;6.72;;;;;;;19.17;44.76;100261.02;1684096;84;21090;-81
2022/09/05 10:16:52;;;;;;;9.80;6.10;;;;;;;19.13;44.85;100260.80;1684246;84;22230;-82
2022/09/05 10:19:58;;;;;;;8.73;5.35;;;;;;;19.16;43.33;100256.63;1684146;84;21064;-80
2022/09/05 10:22:39;;;;;;;2.62;2.17;;;;;;;19.07;42.59;100248.69;1621323;87;21548;-80
2022/09/05 10:25:30;;;;;;;13.20;6.30;;;;;;;19.05;40.36;100247.08;1645482;87;21076;-81
2022/09/05 10:28:12;;;;;;;13.62;6.42;;;;;;;19.07;42.37;100249.17;1692523;83;21087;-81
2022/09/05 10:30:47;;;;;;;12.53;6.72;;;;;;;18.99;43.24;100250.09;1703645;83;21131;-80
2022/09/05 10:33:39;;;;;;;12.98;7.33;;;;;;;19.01;43.65;100246.86;1704014;83;21115;-81
2022/09/05 10:36:26;;;;;;;16.00;7.95;;;;;;;19.14;43.40;100249.19;1703760;83;21187;-80
2022/09/05 10:39:25;;;;;;;8.70;4.83;;;;;;;19.34;44.08;100251.17;1703706;83;21046;-81
2022/09/05 10:42:05;;;;;;;6.30;3.90;;;;;;;19.47;41.51;100243.67;1703609;83;21068;-82
2022/09/05 10:44:39;;;;;;;7.78;4.12;;;;;;;19.30;40.92;100251.83;1703490;83;21139;-82
2022/09/05 10:47:41;;;;;;;11.03;4.05;;;;;;;19.31;41.66;100257.05;1703978;83;21056;-81
2022/09/05 10:50:15;;;;;;;3.37;2.95;;;;;;;19.37;41.88;100263.00;1703916;84;21111;-81
2022/09/05 10:53:00;;;;;;;;;;;;;;;19.50;40.21;100266.63;1658816;83;21005;-81
2022/09/05 10:55:37;;;;;;;10.35;2.20;;;;;;;19.61;39.62;100245.50;1704190;84;20227;-81
2022/09/05 10:58:37;;;;;;;6.55;2.95;;;;;;;19.85;39.51;100248.98;1707540;83;21021;-81
2022/09/05 11:01:32;;;;;;;7.87;3.70;;;;;;;20.08;38.86;100241.38;1698222;84;21592;-81
2022/09/05 11:04:19;;;;;;;;;;;;;;;20.30;37.68;100237.71;1717704;83;21219;-81
2022/09/05 11:06:51;;;;;;;8.58;5.03;;;;;;;20.48;37.63;100234.84;1698011;84;20198;-81
2022/09/05 11:09:28;;;;;;;9.75;6.30;;;;;;;20.62;38.12;100233.94;1715132;83;21020;-80
2022/09/05 11:12:03;;;;;;;10.65;5.50;;;;;;;20.68;37.83;100239.78;1715319;83;21056;-80
2022/09/05 11:14:51;;;;;;;10.08;5.75;;;;;;;20.58;37.79;100235.95;1698110;83;21113;-80
2022/09/05 11:17:39;;;;;;;7.12;5.50;;;;;;;20.46;37.62;100234.05;1715333;83;21760;-80
2022/09/05 11:20:31;;;;;;;10.70;5.72;;;;;;;20.29;38.35;100236.02;1697738;83;21065;-81
2022/09/05 11:23:11;;;;;;;11.28;5.83;;;;;;;20.17;38.79;100235.44;1715148;83;21095;-80
2022/09/05 11:25:38;;;;;;;9.88;5.53;;;;;;;20.00;40.33;100241.35;1676653;84;21026;-81
2022/09/05 11:28:17;;;;;;;7.80;5.28;;;;;;;19.73;41.96;100244.37;1715438;83;21095;-82
2022/09/05 11:30:51;;;;;;;9.63;4.92;;;;;;;19.51;42.78;100241.67;1715262;83;21732;-85
2022/09/05 11:33:58;;;;;;;7.30;4.58;;;;;;;19.34;43.65;100235.16;1715206;83;22145;-83
2022/09/05 11:36:35;;;;;;;7.15;3.58;;;;;;;19.22;45.03;100236.27;1697955;84;21546;-82
2022/09/05 11:39:43;;;;;;;6.58;3.10;;;;;;;19.12;44.70;100230.61;1715390;83;21132;-83
2022/09/05 11:42:37;;;;;;;3.85;2.65;;;;;;;18.98;44.28;100233.24;1715263;83;21052;-81
2022/09/05 11:45:46;;;;;;;4.40;2.50;;;;;;;18.89;44.40;100233.76;1693339;84;22027;-81
2022/09/05 11:48:44;;;;;;;2.37;2.17;;;;;;;18.81;43.12;100230.19;1715032;83;20990;-80
2022/09/05 11:51:34;;;;;;;2.40;2.20;;;;;;;18.71;43.87;100230.30;1715322;83;21040;-80
2022/09/05 11:54:44;;;;;;;5.17;2.42;;;;;;;18.64;43.73;100228.45;1696722;83;21056;-82
2022/09/05 11:58:03;;;;;;;2.40;2.00;;;;;;;18.60;44.26;100230.08;1715179;83;21103;-81
2022/09/05 12:00:49;;;;;;;3.30;2.27;;;;;;;18.72;44.85;100216.04;1635431;87;21008;-81
2022/09/05 12:03:40;;;;;;;5.83;2.17;;;;;;;18.98;43.39;100217.23;1661350;86;21611;-82
2022/09/05 12:06:30;;;;;;;3.47;2.15;;;;;;;19.21;43.08;100207.01;1704791;83;21095;-81
2022/09/05 12:09:44;;;;;;;2.80;1.75;;;;;;;19.52;41.32;100203.36;1622801;88;21019;-80
2022/09/05 12:13:08;;;;;;;2.70;2.10;;;;;;;19.74;40.97;100197.56;1666956;86;21064;-82
2022/09/05 12:15:36;;;;;;;2.17;1.90;;;;;;;20.07;40.51;100191.56;1715374;83;21547;-81
2022/09/05 12:18:09;;;;;;;3.22;1.98;;;;;;;20.34;38.91;100197.83;1715016;83;21649;-80
2022/09/05 12:21:24;;;;;;;2.40;1.85;;;;;;;20.44;38.61;100202.56;1697780;84;21623;-82
2022/09/05 12:23:59;;;;;;;3.02;2.20;;;;;;;20.55;38.34;100202.24;1715312;83;21580;-82
2022/09/05 12:26:37;;;;;;;5.40;2.90;;;;;;;20.74;37.95;100192.55;1698141;84;21030;-82
2022/09/05 12:29:08;;;;;;;6.35;3.00;;;;;;;20.84;36.85;100198.64;1715205;83;21571;-81
2022/09/05 12:31:57;;;;;;;3.00;2.60;;;;;;;20.82;36.54;100198.74;1715112;83;21069;-83
2022/09/05 12:34:55;;;;;;;4.53;2.47;;;;;;;20.86;36.62;100192.22;1698328;84;21066;-83
2022/09/05 12:37:34;;;;;;;6.05;2.85;;;;;;;21.04;36.84;100195.48;1715023;83;21559;-83
2022/09/05 12:40:19;;;;;;;5.28;2.80;;;;;;;21.29;36.02;100197.34;1697864;84;21066;-83
2022/09/05 12:42:57;;;;;;;3.92;2.42;;;;;;;21.37;35.22;100193.28;1714858;83;22337;-80
2022/09/05 12:46:00;;;;;;;2.52;1.92;;;;;;;21.47;35.24;100188.57;1698034;84;21652;-83
2022/09/05 12:48:35;;;;;;;4.92;2.05;;;;;;;21.67;34.95;100182.28;1715240;83;21096;-83
2022/09/05 12:51:16;;;;;;;4.33;1.90;;;;;;;21.78;34.01;100187.75;1715523;83;21135;-82
2022/09/05 12:53:53;;;;;;;5.25;2.22;;;;;;;21.76;33.59;100179.47;1698138;84;21642;-83